Time;durP1;ratioP1;P1;durP2;ratioP2;P2;SDS_P1;SDS_P2;PMS_P1;PMS_P2;Temp;Humidity;BMP_temperature;BMP_pressure;BME280_temperature;BME280_humidity;BME280_pressure;Samples;Min_cycle;Max_cycle;Signal;HPM_P1;HPM_P2
2021/03/20 00:01:00;;;;;;;41.35;25.20;;;;;;;;;;4954248;28;20111;-72
2021/03/20 00:03:26;;;;;;;38.72;24.25;;;;;;;;;;4948057;29;20492;-70
2021/03/20 00:05:53;;;;;;;37.15;23.30;;;;;;;;;;4951380;29;20492;-72
2021/03/20 00:08:21;;;;;;;30.17;22.38;;;;;;;;;;4937486;29;20090;-71
2021/03/20 00:10:48;;;;;;;36.10;23.20;;;;;;;;;;4940203;29;20114;-70
2021/03/20 00:13:14;;;;;;;36.55;24.08;;;;;;;;;;4942030;29;20040;-70
2021/03/20 00:15:40;;;;;;;40.30;24.77;;;;;;;;;;4937778;29;20035;-71
2021/03/20 00:18:07;;;;;;;37.58;25.33;;;;;;;;;;4949353;29;20561;-70
2021/03/20 00:20:35;;;;;;;35.85;22.63;;;;;;;;;;4938250;29;20110;-70
2021/03/20 00:23:01;;;;;;;36.00;23.88;;;;;;;;;;4940162;29;20030;-70
2021/03/20 00:25:27;;;;;;;37.85;24.83;;;25.60;2201.60;;;;;;4956596;29;20074;-70
2021/03/20 00:27:53;;;;;;;38.90;25.33;;;0.60;2201.60;;;;;;4956636;29;20059;-71
2021/03/20 00:30:20;;;;;;;36.88;24.58;;;0.50;2201.60;;;;;;4942198;28;20043;-74
2021/03/20 00:32:46;;;;;;;34.97;24.58;;;0.50;2201.60;;;;;;4948100;29;20024;-71
2021/03/20 00:35:14;;;;;;;44.13;24.23;;;0.50;2201.60;;;;;;4954736;29;20078;-71
2021/03/20 00:37:40;;;;;;;36.17;24.92;;;0.40;2201.60;;;;;;4941332;29;20449;-70
2021/03/20 00:40:09;;;;;;;35.53;24.13;;;0.40;2201.60;;;;;;4947984;29;20467;-72
2021/03/20 00:42:35;;;;;;;34.97;23.63;;;0.40;2201.60;;;;;;4947270;28;20473;-70
2021/03/20 00:45:00;;;;;;;36.45;23.65;;;0.40;2201.60;;;;;;4956338;29;20031;-71
2021/03/20 00:47:26;;;;;;;35.50;24.30;;;0.40;2201.60;;;;;;4955226;29;20046;-69
2021/03/20 00:49:52;;;;;;;37.28;26.20;;;0.40;2201.60;;;;;;4936669;29;20047;-70
2021/03/20 00:52:18;;;;;;;36.22;25.38;;;0.40;2201.60;;;;;;4956208;29;20091;-70
2021/03/20 00:54:43;;;;;;;38.20;25.80;;;0.40;2201.60;;;;;;4944298;28;20058;-70
2021/03/20 00:57:09;;;;;;;40.50;25.55;;;0.40;2201.60;;;;;;4954946;29;20408;-70
2021/03/20 00:59:35;;;;;;;38.47;26.67;;;0.40;2201.60;;;;;;4953205;29;20031;-71
2021/03/20 01:02:00;;;;;;;37.35;26.42;;;0.30;2201.60;;;;;;4941598;29;20036;-71
2021/03/20 01:04:26;;;;;;;39.38;26.35;;;0.30;2201.60;;;;;;4947536;28;20024;-71
2021/03/20 01:06:52;;;;;;;42.08;27.73;;;0.30;2201.60;;;;;;4959453;29;20073;-70
2021/03/20 01:09:18;;;;;;;41.25;28.10;;;0.30;2201.60;;;;;;4945240;29;20090;-71
2021/03/20 01:11:44;;;;;;;40.63;26.90;;;0.20;2201.60;;;;;;4941951;29;20078;-71
2021/03/20 01:14:10;;;;;;;42.03;26.00;;;0.20;2201.60;;;;;;4936134;29;20032;-70
2021/03/20 01:16:35;;;;;;;40.80;28.35;;;0.20;2201.60;;;;;;4936869;29;20016;-70
2021/03/20 01:19:01;;;;;;;38.50;26.42;;;0.20;2201.60;;;;;;4935987;29;20390;-72
2021/03/20 01:21:27;;;;;;;39.97;27.17;;;0.20;2201.60;;;;;;4954748;29;20047;-70
2021/03/20 01:23:53;;;;;;;40.78;27.88;;;0.10;2201.60;;;;;;4947524;28;20038;-71
2021/03/20 01:26:19;;;;;;;43.88;27.92;;;0.10;2201.60;;;;;;4955446;28;20035;-70
2021/03/20 01:28:45;;;;;;;40.80;28.85;;;0.10;2201.60;;;;;;4949514;28;20078;-69
2021/03/20 01:31:15;;;;;;;43.88;29.00;;;0.20;2201.60;;;;;;4950241;29;20023;-70
2021/03/20 01:33:41;;;;;;;40.75;27.58;;;0.10;2201.60;;;;;;4950522;28;20452;-70
2021/03/20 01:36:08;;;;;;;40.60;27.58;;;0.10;2201.60;;;;;;4955899;29;20106;-70
2021/03/20 01:38:34;;;;;;;44.35;28.92;;;0.10;2201.60;;;;;;4954512;28;20028;-70
2021/03/20 01:41:08;;;;;;;42.60;28.15;;;0.10;2201.60;;;;;;4946868;28;20063;-71
2021/03/20 01:43:34;;;;;;;41.17;29.00;;;0.10;2201.60;;;;;;4949930;28;20024;-70
2021/03/20 01:46:41;;;;;;;39.08;28.65;;;0.10;2201.60;;;;;;4946157;29;20027;-71
2021/03/20 01:49:18;;;;;;;42.67;29.10;;;0.10;2201.60;;;;;;4889278;29;20061;-71
2021/03/20 01:51:54;;;;;;;41.88;28.30;;;0.10;2201.60;;;;;;4881052;29;20101;-70
2021/03/20 01:54:21;;;;;;;43.50;30.02;;;0.10;2201.60;;;;;;4886396;29;20376;-71
2021/03/20 01:56:47;;;;;;;41.80;30.48;;;0.10;2201.60;;;;;;4890704;29;20411;-72
2021/03/20 01:59:14;;;;;;;41.67;29.42;;;0.10;2201.60;;;;;;4892848;29;20155;-70
2021/03/20 02:01:41;;;;;;;44.45;31.25;;;0.10;2201.60;;;;;;4881086;29;20025;-70
2021/03/20 02:04:07;;;;;;;44.20;30.83;;;0.00;2201.60;;;;;;4886277;29;20390;-71
2021/03/20 02:06:33;;;;;;;43.03;30.63;;;0.00;2201.60;;;;;;4887212;29;20041;-72
2021/03/20 02:09:03;;;;;;;48.15;32.70;;;0.10;2201.60;;;;;;4887498;29;20060;-71
2021/03/20 02:11:38;;;;;;;44.03;30.55;;;0.10;2201.60;;;;;;4886198;29;20040;-70
2021/03/20 02:14:45;;;;;;;46.33;31.10;;;0.00;2201.60;;;;;;4893893;29;20554;-71
2021/03/20 02:17:26;;;;;;;43.97;30.17;;;0.00;2201.60;;;;;;4834742;29;20083;-72
2021/03/20 02:20:22;;;;;;;44.60;31.00;;;0.10;2201.60;;;;;;4838508;29;20037;-72
2021/03/20 02:23:03;;;;;;;45.25;30.98;;;0.10;2201.60;;;;;;4838762;29;20404;-69
2021/03/20 02:25:51;;;;;;;47.00;31.52;;;0.10;2201.60;;;;;;4852334;29;20041;-71
2021/03/20 02:28:38;;;;;;;48.55;31.90;;;0.00;2201.60;;;;;;4875376;29;20045;-70
2021/03/20 02:31:22;;;;;;;47.10;31.70;;;0.00;2201.60;;;;;;4876200;29;20108;-70
2021/03/20 02:34:06;;;;;;;45.05;30.48;;;0.00;2201.60;;;;;;4875952;29;20037;-71
2021/03/20 02:36:38;;;;;;;39.00;28.50;;;0.00;2201.60;;;;;;4875671;29;20430;-70
2021/03/20 02:39:24;;;;;;;49.72;31.42;;;0.00;2201.60;;;;;;4851945;29;691035;-70
2021/03/20 02:41:56;;;;;;;48.53;33.30;;;0.00;2201.60;;;;;;4880325;29;20450;-71
2021/03/20 02:44:38;;;;;;;47.00;31.65;;;0.00;2201.60;;;;;;4888058;29;20029;-71
2021/03/20 02:47:06;;;;;;;50.25;34.70;;;0.00;2201.60;;;;;;4891719;29;20051;-70
2021/03/20 02:49:56;;;;;;;58.22;37.92;;;0.00;2201.60;;;;;;4889248;29;20048;-72
2021/03/20 02:52:33;;;;;;;53.05;35.58;;;0.00;2201.60;;;;;;4882915;29;20402;-70
2021/03/20 02:55:17;;;;;;;45.60;31.58;;;0.00;2201.60;;;;;;4932684;29;20477;-70
2021/03/20 02:57:43;;;;;;;60.83;41.67;;;0.00;2201.60;;;;;;4934718;29;20034;-71
2021/03/20 03:00:21;;;;;;;47.58;33.25;;;0.00;2201.60;;;;;;4935013;29;20032;-72
2021/03/20 03:02:49;;;;;;;53.13;36.08;;;0.00;2201.60;;;;;;4932930;29;20016;-70
2021/03/20 03:05:31;;;;;;;48.10;33.35;;;12.90;2201.60;;;;;;4936296;29;20027;-71
2021/03/20 03:08:06;;;;;;;54.00;33.50;;;12.90;2201.60;;;;;;4945512;29;20540;-70
2021/03/20 03:10:47;;;;;;;50.15;33.25;;;12.90;2201.60;;;;;;4934371;29;20930;-71
2021/03/20 03:13:21;;;;;;;45.30;30.55;;;12.90;2201.60;;;;;;4933427;29;20032;-72
2021/03/20 03:15:53;;;;;;;45.03;32.20;;;13.00;2201.60;;;;;;4934882;29;20050;-71
2021/03/20 03:18:33;;;;;;;48.75;32.10;;;13.00;2201.60;;;;;;4933969;29;20267;-70
2021/03/20 03:21:03;;;;;;;46.45;32.67;;;0.00;2201.60;;;;;;4934314;29;20031;-70
2021/03/20 03:23:31;;;;;;;47.20;32.70;;;;;;;;;;4934705;29;20031;-72
2021/03/20 03:26:04;;;;;;;49.08;33.60;;;0.00;2201.60;;;;;;4934596;29;20027;-71
2021/03/20 03:28:30;;;;;;;45.50;32.38;;;13.00;2201.60;;;;;;4934335;29;20027;-70
2021/03/20 03:30:58;;;;;;;47.17;32.30;;;13.00;2201.60;;;;;;4933852;29;20063;-71
2021/03/20 03:33:28;;;;;;;50.78;33.92;;;12.90;2201.60;;;;;;4933122;29;20023;-70
2021/03/20 03:36:07;;;;;;;46.67;32.20;;;13.00;2201.60;;;;;;4934709;29;20079;-70
2021/03/20 03:38:55;;;;;;;52.20;33.97;;;13.10;2201.60;;;;;;4942956;28;20035;-72
2021/03/20 03:41:27;;;;;;;49.65;33.47;;;13.10;2201.60;;;;;;4937923;29;20134;-72
2021/03/20 03:43:54;;;;;;;46.35;32.97;;;13.10;2201.60;;;;;;4938015;29;20023;-70
2021/03/20 03:46:24;;;;;;;47.63;33.83;;;13.00;2201.60;;;;;;4938259;29;20032;-71
2021/03/20 03:48:57;;;;;;;52.20;34.20;;;13.00;2201.60;;;;;;4937795;29;20028;-70
2021/03/20 03:51:24;;;;;;;;;;;13.00;2201.60;;;;;;4937895;29;20035;-71
2021/03/20 03:53:51;;;;;;;47.15;31.67;;;13.00;2201.60;;;;;;4936657;29;19993;-70
2021/03/20 03:56:45;;;;;;;48.53;30.55;;;13.10;2201.60;;;;;;4937910;29;20031;-70
2021/03/20 03:59:22;;;;;;;46.88;31.30;;;13.10;2201.60;;;;;;4935372;29;20083;-70
2021/03/20 04:02:16;;;;;;;50.03;34.30;;;13.10;2201.60;;;;;;4932180;29;20079;-70
2021/03/20 04:05:03;;;;;;;44.47;31.65;;;13.10;2201.60;;;;;;4936855;29;20032;-71
2021/03/20 04:07:49;;;;;;;43.90;30.98;;;13.10;2201.60;;;;;;4937777;29;20067;-70
2021/03/20 04:10:28;;;;;;;44.35;30.60;;;13.10;2201.60;;;;;;4937063;29;20039;-69
2021/03/20 04:13:18;;;;;;;46.03;32.03;;;13.10;2201.60;;;;;;4931533;29;20023;-70
2021/03/20 04:16:02;;;;;;;46.35;30.60;;;13.10;2201.60;;;;;;4878720;29;20049;-70
2021/03/20 04:18:46;;;;;;;47.00;31.50;;;13.10;2201.60;;;;;;4878530;29;20049;-70
2021/03/20 04:21:21;;;;;;;44.75;30.20;;;13.20;2201.60;;;;;;4877897;29;20041;-71
2021/03/20 04:24:16;;;;;;;45.03;30.20;;;13.20;2201.60;;;;;;4878574;29;20044;-70
2021/03/20 04:26:58;;;;;;;50.05;34.85;;;13.20;2201.60;;;;;;4842500;29;20033;-70
2021/03/20 04:29:50;;;;;;;47.13;31.85;;;13.30;2201.60;;;;;;4839896;29;20062;-69
2021/03/20 04:32:27;;;;;;;44.72;30.17;;;13.30;2201.60;;;;;;4841050;29;20046;-70
2021/03/20 04:35:05;;;;;;;45.65;31.35;;;13.30;2201.60;;;;;;4841901;29;20070;-72
2021/03/20 04:37:35;;;;;;;43.10;30.73;;;13.30;2201.60;;;;;;4840817;29;20042;-70
2021/03/20 04:40:05;;;;;;;46.58;33.45;;;13.30;2201.60;;;;;;4852040;29;20512;-72
2021/03/20 04:42:33;;;;;;;43.72;31.30;;;13.30;2201.60;;;;;;4859787;29;20038;-71
2021/03/20 04:45:11;;;;;;;45.08;31.00;;;13.20;2201.60;;;;;;4859134;29;20046;-70
2021/03/20 04:47:38;;;;;;;38.00;28.50;;;13.10;2201.60;;;;;;4857924;29;20112;-71
2021/03/20 04:50:26;;;;;;;44.20;30.08;;;13.20;2201.60;;;;;;4860072;29;20061;-76
2021/03/20 04:52:54;;;;;;;42.00;30.40;;;13.20;2201.60;;;;;;4870607;29;20085;-77
2021/03/20 04:55:20;;;;;;;40.15;28.65;;;13.10;2201.60;;;;;;4879940;29;20033;-76
2021/03/20 04:57:49;;;;;;;44.78;29.35;;;13.10;2201.60;;;;;;4880232;29;20069;-76
2021/03/20 05:00:24;;;;;;;38.63;28.75;;;13.00;2201.60;;;;;;4880805;29;20025;-78
2021/03/20 05:03:16;;;;;;;36.28;26.90;;;12.90;2201.60;;;;;;4887255;29;20052;-77
2021/03/20 05:05:48;;;;;;;36.70;26.73;;;12.90;2201.60;;;;;;4938219;29;20060;-78
2021/03/20 05:08:41;;;;;;;46.60;32.15;;;0.00;2201.60;;;;;;4937418;29;20043;-74
2021/03/20 05:11:13;;;;;;;42.28;28.55;;;0.10;2201.60;;;;;;4934667;29;20103;-68
2021/03/20 05:13:56;;;;;;;34.75;26.90;;;0.30;2201.60;;;;;;4932282;29;20083;-67
2021/03/20 05:16:39;;;;;;;36.28;26.33;;;0.50;2201.60;;;;;;4935845;29;20031;-72
2021/03/20 05:19:06;;;;;;;34.00;24.85;;;0.60;2201.60;;;;;;4935679;29;20506;-69
2021/03/20 05:21:36;;;;;;;32.45;25.05;;;0.80;2201.60;;;;;;4934590;29;20058;-68
2021/03/20 05:24:03;;;;;;;34.17;27.30;;;25.60;2201.60;;;;;;4933634;29;20401;-73
2021/03/20 05:26:32;;;;;;;28.95;22.15;;;25.90;2201.60;;;;;;4933936;29;20034;-68
2021/03/20 05:28:58;;;;;;;31.92;22.80;;;26.10;2201.60;;;;;;4933907;29;20423;-71
2021/03/20 05:31:26;;;;;;;30.08;23.52;;;26.40;2201.60;;;;;;4935678;29;20110;-72
2021/03/20 05:33:52;;;;;;;30.35;21.85;;;51.20;2227.20;;;;;;4934218;29;20023;-72
2021/03/20 05:36:18;;;;;;;29.83;21.85;;;51.60;2227.20;;;;;;4936609;29;20147;-70
2021/03/20 05:38:46;;;;;;;29.25;21.20;;;76.80;2227.20;;;;;;4932230;29;20491;-72
2021/03/20 05:41:35;;;;;;;25.30;20.73;;;77.30;2227.20;;;;;;4933586;29;20083;-71
2021/03/20 05:44:18;;;;;;;28.33;21.08;;;102.60;2227.20;;;;;;4934597;29;20560;-73
2021/03/20 05:47:02;;;;;;;26.98;20.73;;;128.10;2252.80;;;;;;4934656;29;20032;-72
2021/03/20 05:49:40;;;;;;;25.08;19.65;;;153.70;2252.80;;;;;;4934063;29;20040;-70
2021/03/20 05:52:08;;;;;;;25.88;19.73;;;154.50;2252.80;;;;;;4931161;29;20042;-73
2021/03/20 05:55:14;;;;;;;24.48;19.92;;;180.10;2252.80;;;;;;4934376;29;20509;-71
2021/03/20 05:58:03;;;;;;;23.30;18.70;;;;;;;;;;4933520;29;20070;-71
2021/03/20 06:00:32;;;;;;;20.88;17.88;;;;;;;;;;4855316;29;20532;-73
2021/03/20 06:03:13;;;;;;;21.67;17.60;;;;;;;;;;4857200;29;20098;-71
2021/03/20 06:05:52;;;;;;;19.83;17.58;;;;;;;;;;4852109;29;20041;-72
2021/03/20 06:08:27;;;;;;;20.05;17.13;;;281.80;1894.40;;;;;;4857119;29;20049;-70
2021/03/20 06:10:56;;;;;;;22.05;18.25;;;;;;;;;;4857577;29;20053;-73
2021/03/20 06:13:28;;;;;;;41.90;30.50;;;;;;;;;;4857978;29;20033;-74
2021/03/20 06:16:00;;;;;;;26.90;19.80;;;;;;;;;;4856560;29;20040;-73
2021/03/20 06:18:37;;;;;;;27.80;20.08;;;;;;;;;;4857811;29;20423;-72
2021/03/20 06:21:06;;;;;;;46.53;30.02;;;;;;;;;;4855952;29;20518;-69
2021/03/20 06:23:32;;;;;;;45.42;31.65;;;;;;;;;;4856233;29;20045;-72
2021/03/20 06:26:02;;;;;;;56.72;37.53;;;;;;;;;;4856913;29;20492;-75
2021/03/20 06:28:38;;;;;;;57.97;40.42;;;;;;;;;;4857117;29;20535;-71
2021/03/20 06:31:07;;;;;;;24.63;19.73;;;;;;;;;;4856475;29;20045;-72
2021/03/20 06:33:45;;;;;;;32.58;25.55;;;;;;;;;;4851096;29;20508;-72
2021/03/20 06:36:17;;;;;;;30.77;25.48;;;;;;;;;;4857543;29;20075;-71
2021/03/20 06:38:46;;;;;;;27.60;22.88;;;;;;;;;;4932348;29;20138;-72
2021/03/20 06:41:15;;;;;;;29.95;22.05;;;;;;;;;;4941713;29;20035;-72
2021/03/20 06:43:44;;;;;;;26.33;23.05;;;;;;;;;;4942433;29;20079;-68
2021/03/20 06:46:14;;;;;;;28.70;23.10;;;;;;;;;;4934291;29;20111;-69
2021/03/20 06:48:40;;;;;;;25.38;21.90;;;;;;;;;;4935849;29;20027;-67
2021/03/20 06:51:06;;;;;;;24.73;20.48;;;;;;;;;;4935029;29;20040;-70
2021/03/20 06:53:41;;;;;;;24.27;21.35;;;;;;;;;;4929242;29;20102;-66
2021/03/20 06:56:10;;;;;;;25.38;21.48;;;;;;;;;;4944296;29;20028;-68
2021/03/20 06:58:37;;;;;;;24.50;21.80;;;;;;;;;;4943229;29;20054;-68
2021/03/20 07:01:23;;;;;;;25.17;20.92;;;;;;;;;;4943884;29;20028;-69
2021/03/20 07:04:09;;;;;;;27.45;23.05;;;;;;;;;;4891834;29;20040;-69
2021/03/20 07:06:42;;;;;;;23.48;20.55;;;;;;;;;;4889641;29;20157;-67
2021/03/20 07:09:09;;;;;;;24.65;20.85;;;;;;;;;;4888932;29;20157;-75
2021/03/20 07:11:42;;;;;;;26.40;21.70;;;;;;;;;;4890113;29;20037;-73
2021/03/20 07:14:10;;;;;;;33.95;24.77;;;;;;;;;;4887392;29;20033;-69
2021/03/20 07:16:54;;;;;;;26.98;21.13;;;;;;;;;;4888612;29;20032;-70
2021/03/20 07:19:20;;;;;;;22.00;18.80;;;;;;;;;;4891267;29;20124;-66
2021/03/20 07:22:04;;;;;;;24.05;19.13;;;;;;;;;;4896528;29;20558;-67
2021/03/20 07:24:30;;;;;;;;;;;;;;;;;;4898290;29;20127;-71
2021/03/20 07:26:58;;;;;;;24.27;18.63;;;;;;;;;;4889384;29;20038;-69
2021/03/20 07:29:59;;;;;;;24.45;18.80;;;;;;;;;;4897490;29;20041;-69
2021/03/20 07:32:25;;;;;;;22.30;18.70;;;;;;;;;;4872466;29;20144;-66
2021/03/20 07:35:12;;;;;;;28.50;24.10;;;;;;;;;;4878782;29;20055;-67
2021/03/20 07:37:39;;;;;;;23.73;19.92;;;;;;;;;;4879214;29;20040;-70
2021/03/20 07:40:12;;;;;;;22.15;18.77;;;;;;;;;;4889266;29;20067;-69
2021/03/20 07:42:39;;;;;;;20.38;18.17;;;;;;;;;;4894686;29;20039;-72
2021/03/20 07:45:17;;;;;;;22.02;19.48;;;;;;;;;;4889858;29;20044;-74
2021/03/20 07:47:45;;;;;;;21.83;19.48;;;;;;;;;;4897424;29;20040;-73
2021/03/20 07:50:20;;;;;;;23.45;20.30;;;;;;;;;;4904441;29;20135;-71
2021/03/20 07:52:48;;;;;;;26.45;20.52;;;;;;;;;;4896399;29;20115;-67
2021/03/20 07:55:19;;;;;;;34.45;21.38;;;;;;;;;;4897743;29;20123;-67
2021/03/20 07:57:51;;;;;;;20.20;17.13;;;;;;;;;;4897584;29;20036;-70
2021/03/20 08:00:22;;;;;;;22.77;17.77;;;;;;;;;;4896447;29;20115;-73
2021/03/20 08:02:49;;;;;;;20.80;18.00;;;;;;;;;;4899021;29;20037;-71
2021/03/20 08:05:21;;;;;;;22.25;17.92;;;;;;;;;;4901592;29;20151;-72
2021/03/20 08:07:49;;;;;;;20.67;17.63;;;;;;;;;;4947577;28;20019;-71
2021/03/20 08:10:21;;;;;;;20.00;17.67;;;;;;;;;;4965487;28;20078;-74
2021/03/20 08:13:12;;;;;;;21.55;17.85;;;;;;;;;;4956589;28;20064;-74
2021/03/20 08:15:41;;;;;;;19.65;17.45;;;;;;;;;;4940418;28;20168;-74
2021/03/20 08:18:27;;;;;;;20.80;17.27;;;;;;;;;;4949001;29;20788;-75
2021/03/20 08:21:20;;;;;;;27.40;17.15;;;;;;;;;;4954613;28;20487;-71
2021/03/20 08:24:04;;;;;;;26.35;17.90;;;;;;;;;;4926950;29;20049;-75
2021/03/20 08:26:46;;;;;;;21.15;17.42;;;;;;;;;;4945698;28;20023;-73
2021/03/20 08:29:24;;;;;;;20.42;16.85;;;;;;;;;;4956865;28;20421;-73
2021/03/20 08:32:00;;;;;;;21.90;17.35;;;;;;;;;;4947295;28;20019;-70
2021/03/20 08:34:32;;;;;;;20.83;16.98;;;;;;;;;;4955827;28;20031;-74
2021/03/20 08:37:13;;;;;;;21.98;17.05;;;282.20;1254.40;;;;;;4948976;28;20023;-79
2021/03/20 08:40:17;;;;;;;18.40;15.55;;;282.00;1305.60;;;;;;4953597;28;20113;-75
2021/03/20 08:43:25;;;;;;;24.83;16.73;;;256.70;1254.40;;;;;;4950918;28;20039;-68
2021/03/20 08:46:06;;;;;;;40.47;18.98;;;230.70;1408.00;;;;;;4912049;29;20118;-71
2021/03/20 08:49:00;;;;;;;20.13;14.98;;;205.40;1715.20;;;;;;4911711;29;20438;-77
2021/03/20 08:51:37;;;;;;;25.17;17.30;;;180.10;1766.40;;;;;;4914260;29;20036;-75
2021/03/20 08:54:07;;;;;;;23.42;17.77;;;;;;;;;;4924188;29;20032;-74
2021/03/20 08:56:59;;;;;;;22.60;18.10;;;179.60;1638.40;;;;;;4901709;29;20040;-74
2021/03/20 08:59:39;;;;;;;25.58;18.25;;;179.30;1740.80;;;;;;4915546;29;20050;-74
2021/03/20 09:02:23;;;;;;;24.60;17.92;;;179.40;1740.80;;;;;;4915803;29;20111;-73
2021/03/20 09:04:59;;;;;;;30.30;19.52;;;179.40;1638.40;;;;;;4915113;29;20094;-76
2021/03/20 09:07:41;;;;;;;24.02;16.88;;;179.20;1689.60;;;;;;4905555;29;20036;-74
2021/03/20 09:10:15;;;;;;;26.17;17.85;;;179.30;1689.60;;;;;;4899930;29;20052;-75
2021/03/20 09:12:46;;;;;;;27.70;18.10;;;179.20;1740.80;;;;;;4914902;29;20079;-73
2021/03/20 09:15:26;;;;;;;28.13;18.55;;;154.50;1740.80;;;;;;4915625;29;20671;-75
2021/03/20 09:17:52;;;;;;;24.40;17.83;;;;;;;;;;4903864;29;20020;-74
2021/03/20 09:20:32;;;;;;;33.33;19.25;;;179.30;1740.80;;;;;;4912254;29;20040;-75
2021/03/20 09:23:00;;;;;;;22.58;17.63;;;179.30;1689.60;;;;;;4930868;28;20039;-73
2021/03/20 09:25:28;;;;;;;21.95;15.98;;;179.40;1638.40;;;;;;4955847;28;20426;-76
2021/03/20 09:28:14;;;;;;;24.10;16.10;;;179.80;1612.80;;;;;;4949744;28;20426;-75
2021/03/20 09:30:57;;;;;;;23.20;16.90;;;179.80;1561.60;;;;;;4954400;28;20043;-73
2021/03/20 09:33:25;;;;;;;20.00;15.73;;;179.90;1587.20;;;;;;4955222;28;20106;-73
2021/03/20 09:36:10;;;;;;;22.58;15.57;;;179.90;1536.00;;;;;;4955176;28;20027;-75
2021/03/20 09:38:36;;;;;;;18.63;15.23;;;180.00;1561.60;;;;;;4952780;28;20364;-74
2021/03/20 09:41:14;;;;;;;20.10;14.45;;;204.80;1561.60;;;;;;4954905;29;20053;-72
2021/03/20 09:43:47;;;;;;;21.60;16.90;;;179.90;1536.00;;;;;;4936650;29;20042;-74
2021/03/20 09:46:25;;;;;;;21.17;16.52;;;180.00;1561.60;;;;;;4951846;29;20031;-77
2021/03/20 09:48:52;;;;;;;23.25;17.23;;;204.80;1536.00;;;;;;4942581;29;20082;-75
2021/03/20 09:52:05;;;;;;;20.20;15.45;;;180.00;1561.60;;;;;;4951767;29;20034;-72
2021/03/20 09:54:33;;;;;;;23.65;15.18;;;204.80;1536.00;;;;;;4895868;29;20448;-74
2021/03/20 09:59:41;;;;;;;22.70;14.65;;;179.90;1484.80;;;;;;4879273;29;20056;-75
2021/03/20 10:02:10;;;;;;;19.60;14.48;;;179.80;1484.80;;;;;;4895824;29;20024;-76
2021/03/20 10:05:21;;;;;;;15.82;12.48;;;180.00;1433.60;;;;;;4896435;29;20048;-80
2021/03/20 10:08:22;;;;;;;19.27;12.20;;;180.10;1408.00;;;;;;4865066;29;20086;-75
2021/03/20 10:10:52;;;;;;;18.27;13.57;;;205.00;1408.00;;;;;;4862173;29;20507;-76
2021/03/20 10:13:37;;;;;;;20.65;13.80;;;205.10;1356.80;;;;;;4840012;29;20033;-74
2021/03/20 10:16:05;;;;;;;18.58;13.82;;;205.30;1382.40;;;;;;4867471;29;20033;-74
2021/03/20 10:18:53;;;;;;;19.40;14.30;;;205.40;1356.80;;;;;;4866585;29;20049;-76
2021/03/20 10:21:26;;;;;;;19.98;13.48;;;205.60;1356.80;;;;;;4859962;29;20037;-75
2021/03/20 10:24:00;;;;;;;24.38;14.93;;;230.50;1356.80;;;;;;4864542;29;20530;-73
2021/03/20 10:26:38;;;;;;;27.52;17.27;;;205.60;1331.20;;;;;;4848372;29;20026;-74
2021/03/20 10:29:08;;;;;;;19.27;15.27;;;204.90;1484.80;;;;;;4840270;29;20045;-75
2021/03/20 10:31:41;;;;;;;19.90;15.07;;;204.80;1433.60;;;;;;4899449;29;20047;-75
2021/03/20 10:34:13;;;;;;;19.17;15.23;;;204.80;1459.20;;;;;;4909517;29;20107;-74
2021/03/20 10:36:45;;;;;;;19.98;14.80;;;204.90;1433.60;;;;;;4913981;29;20036;-76
2021/03/20 10:39:32;;;;;;;18.95;13.90;;;205.00;1433.60;;;;;;4934312;29;20040;-77
2021/03/20 10:42:12;;;;;;;17.38;13.73;;;180.00;1356.80;;;;;;4943987;28;20027;-76
2021/03/20 10:44:43;;;;;;;20.23;14.32;;;204.80;1382.40;;;;;;4951099;28;20552;-75
2021/03/20 10:47:11;;;;;;;24.42;15.07;;;204.80;1356.80;;;;;;4952861;28;20047;-74
2021/03/20 10:49:42;;;;;;;20.08;15.18;;;204.80;1408.00;;;;;;4952921;28;20501;-74
2021/03/20 10:52:19;;;;;;;20.85;15.57;;;204.80;1382.40;;;;;;4953790;29;20559;-73
2021/03/20 10:54:48;;;;;;;19.90;15.45;;;205.00;1408.00;;;;;;4936245;28;20083;-73
2021/03/20 10:57:24;;;;;;;18.65;14.63;;;180.10;1408.00;;;;;;4952567;28;20031;-75
2021/03/20 10:59:50;;;;;;;23.77;15.20;;;205.00;1408.00;;;;;;4952422;28;20035;-76
2021/03/20 11:02:49;;;;;;;21.70;15.18;;;205.30;1408.00;;;;;;4951852;28;20031;-76
2021/03/20 11:25:36;;;;;;;18.73;13.27;;;205.50;2022.40;;;;;;5089540;28;20820;-78
2021/03/20 11:28:11;;;;;;;15.55;12.40;;;205.10;1305.60;;;;;;5080073;28;20036;-74
2021/03/20 11:30:48;;;;;;;18.20;13.48;;;204.80;1228.80;;;;;;5089614;28;20031;-76
2021/03/20 11:33:20;;;;;;;19.00;13.90;;;204.80;1280.00;;;;;;5089474;28;20017;-75
2021/03/20 11:35:50;;;;;;;16.77;12.57;;;205.20;1280.00;;;;;;5089136;28;20028;-76
2021/03/20 11:38:18;;;;;;;19.77;13.85;;;205.40;1254.40;;;;;;5082630;28;20028;-72
2021/03/20 11:40:46;;;;;;;20.92;14.50;;;205.40;1280.00;;;;;;5069462;28;20029;-75
2021/03/20 11:43:30;;;;;;;16.65;13.15;;;205.50;1305.60;;;;;;5067376;28;20052;-72
2021/03/20 11:46:17;;;;;;;18.20;14.23;;;205.40;1331.20;;;;;;5049067;28;20048;-74
2021/03/20 11:48:51;;;;;;;30.95;13.88;;;205.40;1254.40;;;;;;5057060;28;20031;-73
2021/03/20 11:51:45;;;;;;;20.02;12.88;;;205.60;1280.00;;;;;;5067355;28;20032;-77
2021/03/20 11:54:37;;;;;;;15.80;11.25;;;205.70;1177.60;;;;;;5074695;28;20071;-73
2021/03/20 11:57:02;;;;;;;13.98;11.82;;;230.70;1152.00;;;;;;5084518;28;20114;-72
2021/03/20 11:59:43;;;;;;;15.52;11.65;;;230.90;1203.20;;;;;;5069491;28;20415;-71
2021/03/20 12:02:24;;;;;;;15.45;11.68;;;230.40;1203.20;;;;;;5066729;28;20036;-73
2021/03/20 12:05:14;;;;;;;16.73;12.25;;;230.80;1228.80;;;;;;5069551;28;20386;-72
2021/03/20 12:10:19;;;;;;;12.63;10.32;;;231.30;1331.20;;;;;;5050180;26;20421;-72
2021/03/20 12:12:52;;;;;;;16.58;12.02;;;230.50;1126.40;;;;;;5084426;28;20039;-69
2021/03/20 12:15:28;;;;;;;17.13;12.27;;;230.40;1177.60;;;;;;5070985;28;20039;-69
2021/03/20 12:17:56;;;;;;;20.58;13.68;;;205.70;1203.20;;;;;;5084926;28;20257;-72
2021/03/20 12:20:33;;;;;;;19.77;12.10;;;230.40;1203.20;;;;;;5085774;28;20024;-74
2021/03/20 12:23:16;;;;;;;21.20;12.93;;;230.50;1228.80;;;;;;5083038;28;20017;-69
2021/03/20 12:25:51;;;;;;;19.90;12.50;;;230.60;1228.80;;;;;;5076060;28;20079;-70
2021/03/20 12:28:33;;;;;;;15.57;11.68;;;205.60;1280.00;;;;;;5073852;28;20127;-66
2021/03/20 12:31:08;;;;;;;17.23;11.63;;;205.50;1280.00;;;;;;5080972;28;20041;-66
2021/03/20 12:33:55;;;;;;;20.80;11.65;;;205.60;1254.40;;;;;;5063817;28;20024;-68
2021/03/20 12:36:35;;;;;;;19.60;12.55;;;205.00;1228.80;;;;;;5054172;28;20055;-70
2021/03/20 12:39:01;;;;;;;14.07;11.27;;;205.00;1254.40;;;;;;5072526;28;20509;-68
2021/03/20 12:41:30;;;;;;;23.40;12.68;;;180.00;1254.40;;;;;;5073218;28;20037;-67
2021/03/20 12:44:23;;;;;;;21.02;12.00;;;180.10;1305.60;;;;;;5072636;28;20028;-68
2021/03/20 12:46:59;;;;;;;19.73;12.10;;;204.80;1331.20;;;;;;5070691;28;20036;-70
2021/03/20 12:49:27;;;;;;;15.50;11.65;;;205.10;1305.60;;;;;;5074310;28;20425;-72
2021/03/20 12:52:06;;;;;;;15.85;12.05;;;205.30;1356.80;;;;;;5073923;28;20054;-72
2021/03/20 12:54:43;;;;;;;15.52;12.82;;;205.20;1331.20;;;;;;5074010;28;20036;-73
2021/03/20 12:57:30;;;;;;;16.58;12.27;;;205.30;1331.20;;;;;;5073762;28;20028;-72
2021/03/20 12:59:56;;;;;;;15.50;12.82;;;205.40;1331.20;;;;;;5073671;28;20022;-72
2021/03/20 13:02:23;;;;;;;17.23;11.90;;;205.50;1305.60;;;;;;5072621;28;20016;-72
2021/03/20 13:04:50;;;;;;;14.10;11.05;;;205.40;1203.20;;;;;;5073184;28;20162;-72
2021/03/20 13:07:17;;;;;;;13.18;11.48;;;205.30;1203.20;;;;;;5073013;28;20059;-73
2021/03/20 13:09:42;;;;;;;16.15;11.93;;;205.30;1228.80;;;;;;5052566;28;20147;-73
2021/03/20 13:12:11;;;;;;;15.15;11.98;;;205.40;1280.00;;;;;;5040105;28;20022;-72
2021/03/20 13:14:37;;;;;;;17.85;12.40;;;205.30;1280.00;;;;;;5028058;28;20057;-72
2021/03/20 13:17:05;;;;;;;16.33;12.18;;;205.30;1254.40;;;;;;5039398;28;20488;-73
2021/03/20 13:19:32;;;;;;;17.70;12.48;;;205.20;1280.00;;;;;;5036650;28;20524;-72
2021/03/20 13:21:58;;;;;;;18.05;13.32;;;205.20;1331.20;;;;;;5037696;28;20080;-73
2021/03/20 13:24:26;;;;;;;19.30;14.35;;;205.20;1382.40;;;;;;5032293;28;20075;-72
2021/03/20 13:26:52;;;;;;;20.95;14.38;;;205.10;1408.00;;;;;;5031128;28;20029;-73
2021/03/20 13:29:17;;;;;;;30.75;14.20;;;204.90;1433.60;;;;;;5034863;28;20108;-74
2021/03/20 13:31:43;;;;;;;23.52;13.90;;;204.80;1459.20;;;;;;5036318;28;20031;-74
2021/03/20 13:34:09;;;;;;;16.80;13.18;;;204.80;1459.20;;;;;;5042130;28;20422;-75
2021/03/20 13:36:37;;;;;;;17.92;13.63;;;180.00;1484.80;;;;;;5052733;28;20017;-74
2021/03/20 13:39:04;;;;;;;17.33;13.40;;;179.70;1536.00;;;;;;5042535;28;20490;-73